Time;durP1;ratioP1;P1;durP2;ratioP2;P2;SDS_P1;SDS_P2;PMS_P1;PMS_P2;Temp;Humidity;BMP_temperature;BMP_pressure;BME280_temperature;BME280_humidity;BME280_pressure;Samples;Min_cycle;Max_cycle;Signal;HPM_P1;HPM_P2
2023/08/03 00:00:13;;;;;;;;;;;16.90;99.90;;;;;;8427208;28;19924;-71
2023/08/03 00:04:15;;;;;;;;;;;16.90;99.90;;;;;;8408109;28;19932;-71
2023/08/03 00:08:17;;;;;;;;;;;17.00;99.90;;;;;;8428897;28;20367;-71
2023/08/03 00:12:18;;;;;;;;;;;17.00;99.90;;;;;;8427862;28;19974;-71
2023/08/03 00:16:20;;;;;;;;;;;17.00;99.90;;;;;;8423595;28;19932;-71
2023/08/03 00:20:22;;;;;;;;;;;17.00;99.90;;;;;;8412992;28;19931;-71
2023/08/03 00:24:24;;;;;;;;;;;17.00;99.90;;;;;;8417411;28;19977;-71
2023/08/03 00:28:26;;;;;;;;;;;17.10;99.90;;;;;;8427584;28;20314;-71
2023/08/03 00:32:28;;;;;;;;;;;17.10;99.90;;;;;;8429868;28;19928;-71
2023/08/03 00:36:29;;;;;;;;;;;17.10;99.90;;;;;;8406207;28;19924;-71
2023/08/03 00:40:32;;;;;;;;;;;17.10;99.90;;;;;;8402623;28;20007;-71
2023/08/03 00:44:33;;;;;;;;;;;17.10;99.90;;;;;;8414600;28;19971;-71
2023/08/03 00:48:35;;;;;;;;;;;17.10;99.90;;;;;;8410980;28;19947;-71
2023/08/03 00:52:37;;;;;;;;;;;17.10;99.90;;;;;;8424407;28;19924;-71
2023/08/03 00:56:41;;;;;;;;;;;17.10;99.90;;;;;;8424893;28;20030;-71
2023/08/03 01:00:43;;;;;;;;;;;17.20;99.90;;;;;;8411742;28;20362;-71
2023/08/03 01:04:45;;;;;;;;;;;17.10;99.90;;;;;;8429767;28;19928;-71
2023/08/03 01:08:46;;;;;;;;;;;17.10;99.90;;;;;;8424056;28;20380;-71
2023/08/03 01:12:48;;;;;;;;;;;17.10;99.90;;;;;;8404070;28;19929;-71
2023/08/03 01:21:55;;;;;;;;;;;17.20;99.90;;;;;;8416245;28;20395;-71
2023/08/03 01:25:57;;;;;;;;;;;17.20;99.90;;;;;;8404595;28;20349;-72
2023/08/03 01:29:59;;;;;;;;;;;17.20;99.90;;;;;;8423017;28;19928;-71
2023/08/03 01:34:01;;;;;;;;;;;17.20;99.90;;;;;;8403274;28;19924;-71
2023/08/03 01:38:02;;;;;;;;;;;17.20;99.90;;;;;;8411648;28;19928;-71
2023/08/03 01:42:04;;;;;;;;;;;17.20;99.90;;;;;;8411703;28;19931;-71
2023/08/03 01:46:06;;;;;;;;;;;17.20;99.90;;;;;;8413717;28;19977;-71
2023/08/03 01:50:07;;;;;;;;;;;17.30;99.90;;;;;;8411321;28;19927;-71
2023/08/03 01:54:10;;;;;;;;;;;17.30;99.90;;;;;;8418514;28;19924;-71
2023/08/03 01:58:15;;;;;;;;;;;17.30;99.90;;;;;;8421503;28;19928;-71
2023/08/03 02:02:16;;;;;;;;;;;17.30;99.90;;;;;;8401373;28;19931;-71
2023/08/03 02:06:18;;;;;;;;;;;17.30;99.90;;;;;;8403197;28;19928;-71
2023/08/03 02:10:21;;;;;;;;;;;17.30;99.90;;;;;;8409187;28;20357;-71
2023/08/03 02:14:23;;;;;;;;;;;17.30;99.90;;;;;;8408873;28;19985;-71
2023/08/03 02:18:28;;;;;;;;;;;17.30;99.90;;;;;;8427347;28;19931;-71
2023/08/03 02:22:29;;;;;;;;;;;17.40;99.90;;;;;;8420736;28;19928;-71
2023/08/03 02:26:31;;;;;;;;;;;17.40;99.90;;;;;;8417819;28;19931;-71
2023/08/03 02:30:34;;;;;;;;;;;17.40;99.90;;;;;;8400559;28;20449;-72
2023/08/03 02:34:36;;;;;;;;;;;17.40;99.90;;;;;;8402428;28;20376;-71
2023/08/03 02:38:38;;;;;;;;;;;17.40;99.90;;;;;;8422230;28;19924;-71
2023/08/03 02:42:39;;;;;;;;;;;17.30;99.90;;;;;;8423038;28;19924;-71
2023/08/03 02:46:41;;;;;;;;;;;17.30;99.90;;;;;;8424394;28;19924;-71
2023/08/03 02:50:42;;;;;;;;;;;17.30;99.90;;;;;;8407841;28;19928;-71
2023/08/03 02:54:44;;;;;;;;;;;17.30;99.90;;;;;;8410378;28;19927;-71
2023/08/03 02:58:46;;;;;;;;;;;17.30;99.90;;;;;;8421267;28;19973;-71
2023/08/03 03:02:48;;;;;;;;;;;17.30;99.90;;;;;;8424270;28;19950;-71
2023/08/03 03:06:50;;;;;;;;;;;17.20;99.90;;;;;;8426107;28;20240;-71
2023/08/03 03:10:51;;;;;;;;;;;17.20;99.90;;;;;;8405309;28;19929;-71
2023/08/03 03:14:53;;;;;;;;;;;17.20;99.90;;;;;;8418590;28;19978;-71
2023/08/03 03:18:55;;;;;;;;;;;17.10;99.90;;;;;;8422534;28;19928;-71
2023/08/03 03:22:56;;;;;;;;;;;17.20;99.90;;;;;;8420632;28;19928;-71
2023/08/03 03:26:58;;;;;;;;;;;17.10;99.90;;;;;;8421653;28;19929;-71
2023/08/03 03:30:59;;;;;;;;;;;17.10;99.90;;;;;;8413230;28;19932;-71
2023/08/03 03:45:09;;;;;;;;;;;17.20;99.90;;;;;;8358901;28;19925;-71
2023/08/03 03:49:11;;;;;;;;;;;17.10;99.90;;;;;;8366763;28;19925;-72
2023/08/03 03:53:12;;;;;;;;;;;17.10;99.90;;;;;;8365692;28;19929;-71
2023/08/03 03:57:14;;;;;;;;;;;17.10;99.90;;;;;;8357292;28;19932;-71
2023/08/03 04:01:16;;;;;;;;;;;17.20;99.90;;;;;;8359302;28;19925;-71
2023/08/03 04:05:18;;;;;;;;;;;17.20;99.90;;;;;;8357852;28;19925;-71
2023/08/03 04:09:19;;;;;;;;;;;17.20;99.90;;;;;;8361962;28;19925;-71
2023/08/03 04:13:21;;;;;;;;;;;17.20;99.90;;;;;;8363336;28;19925;-71
2023/08/03 04:17:23;;;;;;;;;;;17.20;99.90;;;;;;8363618;28;20410;-71
2023/08/03 04:21:24;;;;;;;;;;;17.20;99.90;;;;;;8359661;28;19933;-71
2023/08/03 04:25:26;;;;;;;;;;;17.20;99.90;;;;;;8347405;28;19967;-71
2023/08/03 04:29:28;;;;;;;;;;;17.20;99.90;;;;;;8361837;28;19936;-71
2023/08/03 04:33:29;;;;;;;;;;;17.20;99.90;;;;;;8356700;28;19925;-71
2023/08/03 04:37:31;;;;;;;;;;;17.20;99.90;;;;;;8362267;28;19932;-71
2023/08/03 04:41:32;;;;;;;;;;;17.20;99.90;;;;;;8365207;28;19931;-71
2023/08/03 04:45:35;;;;;;;;;;;17.20;99.90;;;;;;8402135;28;19924;-71
2023/08/03 04:49:36;;;;;;;;;;;17.20;99.90;;;;;;8428379;28;19924;-71
2023/08/03 04:53:38;;;;;;;;;;;17.20;99.90;;;;;;8428003;28;19977;-71
2023/08/03 04:57:40;;;;;;;;;;;17.20;99.90;;;;;;8410647;28;19928;-71
2023/08/03 05:11:48;;;;;;;;;;;17.20;99.90;;;;;;8417289;28;19965;-71
2023/08/03 05:15:50;;;;;;;;;;;17.10;99.90;;;;;;8421245;28;19989;-71
2023/08/03 05:19:52;;;;;;;;;;;17.10;99.90;;;;;;8425601;28;19928;-71
2023/08/03 05:23:53;;;;;;;;;;;17.10;99.90;;;;;;8404314;28;19924;-71
2023/08/03 05:27:55;;;;;;;;;;;17.00;99.90;;;;;;8407686;28;19928;-72
2023/08/03 05:31:57;;;;;;;;;;;17.10;99.90;;;;;;8427866;28;19924;-72
2023/08/03 05:35:58;;;;;;;;;;;17.10;99.90;;;;;;8421727;28;20314;-71
2023/08/03 05:40:03;;;;;;;;;;;17.10;99.90;;;;;;8413485;28;20024;-71
2023/08/03 05:44:05;;;;;;;;;;;17.10;99.90;;;;;;8422851;28;19924;-71
2023/08/03 05:48:33;;;;;;;;;;;17.10;99.90;;;;;;8428367;28;19931;-71
2023/08/03 05:52:34;;;;;;;;;;;17.10;99.90;;;;;;8409082;28;20381;-71
2023/08/03 05:56:37;;;;;;;;;;;17.10;99.90;;;;;;8428773;28;19931;-71
2023/08/03 06:00:39;;;;;;;;;;;17.10;99.90;;;;;;8398653;28;20346;-71
2023/08/03 06:04:41;;;;;;;;;;;17.00;99.90;;;;;;8415031;28;20291;-71
2023/08/03 06:08:45;;;;;;;;;;;17.00;99.90;;;;;;8424549;28;19974;-71
2023/08/03 06:12:46;;;;;;;;;;;17.00;99.90;;;;;;8435498;28;19928;-71
2023/08/03 06:16:48;;;;;;;;;;;17.00;99.90;;;;;;8409705;28;19932;-71
2023/08/03 06:20:50;;;;;;;;;;;17.00;99.90;;;;;;8420043;28;19939;-71
2023/08/03 06:24:52;;;;;;;;;;;17.00;99.90;;;;;;8412675;28;19985;-71
2023/08/03 06:33:58;;;;;;;;;;;17.00;99.90;;;;;;8416338;28;20011;-71
2023/08/03 06:38:00;;;;;;;;;;;17.00;99.90;;;;;;8409666;28;19924;-71
2023/08/03 06:42:02;;;;;;;;;;;17.00;99.90;;;;;;8425304;28;19924;-71
2023/08/03 06:46:05;;;;;;;;;;;17.00;99.90;;;;;;8400803;28;19970;-71
2023/08/03 06:50:08;;;;;;;;;;;17.00;99.90;;;;;;8422591;28;20018;-71
2023/08/03 06:54:10;;;;;;;;;;;17.00;99.90;;;;;;8423324;28;19928;-71
2023/08/03 06:58:11;;;;;;;;;;;17.00;99.90;;;;;;8426494;28;20385;-71
2023/08/03 07:02:13;;;;;;;;;;;17.00;99.90;;;;;;8417203;28;19923;-72
2023/08/03 07:06:15;;;;;;;;;;;17.00;99.90;;;;;;8412197;28;19931;-71
2023/08/03 07:10:16;;;;;;;;;;;17.00;99.90;;;;;;8422530;28;20341;-71
2023/08/03 07:14:18;;;;;;;;;;;17.00;99.90;;;;;;8414608;28;19975;-71
2023/08/03 07:18:20;;;;;;;;;;;17.00;99.90;;;;;;8421221;28;20299;-72
2023/08/03 07:22:22;;;;;;;;;;;17.00;99.90;;;;;;8422164;28;19924;-71
2023/08/03 07:26:23;;;;;;;;;;;17.00;99.90;;;;;;8412302;28;19924;-71
2023/08/03 07:30:25;;;;;;;;;;;17.10;99.90;;;;;;8419885;28;20364;-71
2023/08/03 07:34:26;;;;;;;;;;;17.10;99.90;;;;;;8411671;28;19993;-71
2023/08/03 07:38:28;;;;;;;;;;;17.10;99.90;;;;;;8414070;28;19924;-71
2023/08/03 07:42:30;;;;;;;;;;;17.20;99.90;;;;;;8421740;28;19928;-72
2023/08/03 07:46:31;;;;;;;;;;;17.30;99.90;;;;;;8422580;28;19969;-72
2023/08/03 07:50:33;;;;;;;;;;;17.30;99.90;;;;;;8418147;28;19924;-71
2023/08/03 07:54:35;;;;;;;;;;;17.40;99.90;;;;;;8403570;28;19935;-71
2023/08/03 07:58:36;;;;;;;;;;;17.40;99.90;;;;;;8401035;28;19924;-71
2023/08/03 08:02:38;;;;;;;;;;;17.50;99.90;;;;;;8418891;28;19974;-71
2023/08/03 08:06:40;;;;;;;;;;;17.60;99.90;;;;;;8425017;28;19924;-71
2023/08/03 08:10:41;;;;;;;;;;;17.70;99.90;;;;;;8431636;28;20379;-71
2023/08/03 08:14:43;;;;;;;;;;;17.80;99.90;;;;;;8418621;28;19924;-71
2023/08/03 08:18:45;;;;;;;;;;;17.90;99.90;;;;;;8402650;28;20273;-71
2023/08/03 08:22:46;;;;;;;;;;;17.90;99.90;;;;;;8405539;28;20378;-71
2023/08/03 08:26:48;;;;;;;;;;;18.00;99.90;;;;;;8424676;28;19934;-71
2023/08/03 08:30:50;;;;;;;;;;;18.10;99.90;;;;;;8429054;28;19938;-71
2023/08/03 08:34:52;;;;;;;;;;;18.10;99.90;;;;;;8410819;28;20212;-71
2023/08/03 08:38:54;;;;;;;;;;;18.20;99.90;;;;;;8430047;28;19928;-71
2023/08/03 08:42:56;;;;;;;;;;;18.20;99.90;;;;;;8422930;28;20268;-71
2023/08/03 08:46:57;;;;;;;;;;;18.30;99.90;;;;;;8408811;28;20058;-71
2023/08/03 08:51:00;;;;;;;;;;;18.30;99.90;;;;;;8429830;28;19939;-71
2023/08/03 08:55:15;;;;;;;;;;;18.40;99.90;;;;;;8429518;28;20433;-71
2023/08/03 08:59:18;;;;;;;;;;;18.60;99.90;;;;;;8414361;28;19952;-71
2023/08/03 09:03:23;;;;;;;;;;;18.70;99.90;;;;;;8411436;28;19974;-71
2023/08/03 09:17:33;;;;;;;;;;;18.70;99.90;;;;;;8426752;28;19981;-71
2023/08/03 09:36:46;;;;;;;;;;;18.90;99.90;;;;;;8417868;28;19958;-71
2023/08/03 09:41:12;;;;;;;;;;;19.00;99.90;;;;;;8407536;28;19964;-71
2023/08/03 09:45:14;;;;;;;;;;;19.20;99.90;;;;;;8419161;28;19924;-71
2023/08/03 09:49:18;;;;;;;;;;;19.40;99.90;;;;;;8408443;28;19931;-71
2023/08/03 09:53:21;;;;;;;;;;;19.60;99.90;;;;;;8421880;28;19924;-71
2023/08/03 09:57:26;;;;;;;;;;;19.60;99.90;;;;;;8421548;28;19969;-71
2023/08/03 10:01:28;;;;;;;;;;;19.50;99.90;;;;;;8426289;28;19932;-71
2023/08/03 10:05:32;;;;;;;;;;;19.30;99.90;;;;;;8426753;28;20429;-71
2023/08/03 10:09:37;;;;;;;;;;;19.20;99.90;;;;;;8404668;28;19932;-71
2023/08/03 10:13:46;;;;;;;;;;;19.10;99.90;;;;;;8410236;28;19924;-71
2023/08/03 10:17:48;;;;;;;;;;;19.20;99.90;;;;;;8418506;28;20034;-71
2023/08/03 10:21:50;;;;;;;;;;;19.30;99.90;;;;;;8420207;28;20303;-71
2023/08/03 10:25:55;;;;;;;;;;;19.50;99.90;;;;;;8414584;28;20302;-70
2023/08/03 10:45:19;;;;;;;;;;;19.10;99.90;;;;;;8394789;28;19923;-71
2023/08/03 10:49:24;;;;;;;;;;;19.00;99.90;;;;;;8423361;28;19970;-71
2023/08/03 11:03:37;;;;;;;;;;;18.90;99.90;;;;;;8419403;28;20322;-71
2023/08/03 11:07:40;;;;;;;;;;;18.90;99.90;;;;;;8421070;28;20390;-71
2023/08/03 11:11:45;;;;;;;;;;;19.00;99.90;;;;;;8404972;28;19963;-71
2023/08/03 11:15:47;;;;;;;;;;;19.00;99.90;;;;;;8423097;28;19928;-71
2023/08/03 11:19:49;;;;;;;;;;;19.00;99.90;;;;;;8427478;28;19928;-71
2023/08/03 11:23:51;;;;;;;;;;;19.00;99.90;;;;;;8415360;28;20022;-72
2023/08/03 11:27:53;;;;;;;;;;;19.00;99.90;;;;;;8412505;28;19935;-71
2023/08/03 11:31:55;;;;;;;;;;;19.00;99.90;;;;;;8416917;28;19931;-71
2023/08/03 11:35:56;;;;;;;;;;;19.00;99.90;;;;;;8426889;28;19928;-71
2023/08/03 11:40:00;;;;;;;;;;;19.00;99.90;;;;;;8407232;28;19924;-71
2023/08/03 11:44:03;;;;;;;;;;;19.00;99.90;;;;;;8426109;28;19928;-71
2023/08/03 11:48:05;;;;;;;;;;;18.90;99.90;;;;;;8425659;28;19928;-71
2023/08/03 11:52:06;;;;;;;;;;;18.80;99.90;;;;;;8427320;28;19925;-71
2023/08/03 11:56:09;;;;;;;;;;;18.80;99.90;;;;;;8425444;28;20375;-72
2023/08/03 12:00:12;;;;;;;;;;;18.90;99.90;;;;;;8422130;28;19931;-71
2023/08/03 12:09:26;;;;;;;;;;;19.00;99.90;;;;;;8421789;28;19923;-71
2023/08/03 12:13:28;;;;;;;;;;;19.00;99.90;;;;;;8405451;28;19931;-71
2023/08/03 12:17:30;;;;;;;;;;;19.00;99.90;;;;;;8413979;28;20336;-71
2023/08/03 12:21:32;;;;;;;;;;;19.00;99.90;;;;;;8428145;28;20015;-71
2023/08/03 12:25:34;;;;;;;;;;;19.10;99.90;;;;;;8422579;28;20272;-71
2023/08/03 12:29:37;;;;;;;;;;;19.10;99.90;;;;;;8432321;28;19968;-71
2023/08/03 12:33:42;;;;;;;;;;;19.20;99.90;;;;;;8424373;28;20287;-71
2023/08/03 12:37:45;;;;;;;;;;;19.30;99.90;;;;;;8426623;28;19928;-71
2023/08/03 12:41:46;;;;;;;;;;;19.40;99.90;;;;;;8427495;28;19928;-71
2023/08/03 12:45:48;;;;;;;;;;;19.40;99.90;;;;;;8413951;28;20348;-71
2023/08/03 12:49:52;;;;;;;;;;;19.30;99.90;;;;;;8428646;28;19931;-71
2023/08/03 12:53:54;;;;;;;;;;;19.30;99.90;;;;;;8400131;28;19925;-71
2023/08/03 12:57:56;;;;;;;;;;;19.40;99.90;;;;;;8406472;28;20407;-71
2023/08/03 13:01:59;;;;;;;;;;;19.40;99.90;;;;;;8402347;28;20411;-71
2023/08/03 13:06:00;;;;;;;;;;;19.40;99.90;;;;;;8403264;28;20591;-71
2023/08/03 13:10:02;;;;;;;;;;;19.40;99.90;;;;;;8403375;28;20380;-71
2023/08/03 13:14:04;;;;;;;;;;;19.50;99.90;;;;;;8390881;28;19928;-71
2023/08/03 13:18:06;;;;;;;;;;;19.60;99.90;;;;;;8402158;28;20503;-71
2023/08/03 13:22:08;;;;;;;;;;;19.70;99.90;;;;;;8407121;28;19928;-71
2023/08/03 13:26:09;;;;;;;;;;;19.80;99.90;;;;;;8403763;28;19928;-71
2023/08/03 13:30:11;;;;;;;;;;;19.70;99.90;;;;;;8404725;28;19924;-71
2023/08/03 13:34:13;;;;;;;;;;;19.60;99.90;;;;;;8392949;28;19924;-71
2023/08/03 13:38:14;;;;;;;;;;;19.50;99.90;;;;;;8405826;28;19924;-71
2023/08/03 13:42:16;;;;;;;;;;;19.50;99.90;;;;;;8399824;28;20396;-71
2023/08/03 13:46:18;;;;;;;;;;;19.50;99.90;;;;;;8392745;28;19932;-71
2023/08/03 13:50:20;;;;;;;;;;;19.60;99.90;;;;;;8405767;28;20314;-71
2023/08/03 13:54:22;;;;;;;;;;;19.60;99.90;;;;;;8401129;28;20059;-71
2023/08/03 13:58:24;;;;;;;;;;;19.60;99.90;;;;;;8409172;28;19932;-70
2023/08/03 14:02:28;;;;;;;;;;;19.60;99.90;;;;;;8398206;28;20295;-71
2023/08/03 14:06:34;;;;;;;;;;;19.60;99.90;;;;;;8403875;28;19928;-71
2023/08/03 14:10:56;;;;;;;;;;;19.60;99.90;;;;;;8393573;28;20026;-71
2023/08/03 14:15:01;;;;;;;;;;;19.70;99.90;;;;;;8399616;28;19981;-71
2023/08/03 14:19:05;;;;;;;;;;;19.80;99.90;;;;;;8400571;28;19924;-71
2023/08/03 14:23:07;;;;;;;;;;;19.80;99.90;;;;;;8388068;28;20394;-71
2023/08/03 14:27:09;;;;;;;;;;;19.70;99.90;;;;;;8406091;28;19931;-71
2023/08/03 14:41:31;;;;;;;;;;;19.70;99.90;;;;;;8403218;28;20024;-71
2023/08/03 14:45:37;;;;;;;;;;;19.70;99.90;;;;;;8402290;28;19924;-71
2023/08/03 14:49:47;;;;;;;;;;;19.60;99.90;;;;;;8401359;28;19967;-71
2023/08/03 14:53:53;;;;;;;;;;;19.50;99.90;;;;;;8403035;28;20372;-71
2023/08/03 14:57:54;;;;;;;;;;;19.40;99.90;;;;;;8398034;28;19935;-71
2023/08/03 15:02:01;;;;;;;;;;;19.40;99.90;;;;;;8379153;28;19977;-71
2023/08/03 15:06:10;;;;;;;;;;;19.40;99.90;;;;;;8401928;28;19935;-71
2023/08/03 15:10:12;;;;;;;;;;;19.30;99.90;;;;;;8390800;28;19989;-71
2023/08/03 15:14:13;;;;;;;;;;;19.20;99.90;;;;;;8400989;28;20022;-71
2023/08/03 15:18:17;;;;;;;;;;;19.10;99.90;;;;;;8390670;28;19925;-71
2023/08/03 15:22:18;;;;;;;;;;;19.00;99.90;;;;;;8405426;28;19931;-71
2023/08/03 15:26:21;;;;;;;;;;;19.00;99.90;;;;;;8407212;28;19978;-72
2023/08/03 15:30:26;;;;;;;;;;;19.00;99.90;;;;;;8413709;28;19931;-71
2023/08/03 15:34:30;;;;;;;;;;;18.90;99.90;;;;;;8396335;28;20269;-71
2023/08/03 15:38:44;;;;;;;;;;;18.90;99.90;;;;;;8428910;28;19928;-71
2023/08/03 15:42:47;;;;;;;;;;;18.80;99.90;;;;;;8408731;28;20372;-71
2023/08/03 15:46:51;;;;;;;;;;;18.70;99.90;;;;;;8404553;28;19924;-71
2023/08/03 15:51:13;;;;;;;;;;;18.70;99.90;;;;;;8412172;28;19928;-71
2023/08/03 15:55:19;;;;;;;;;;;18.60;99.90;;;;;;8409552;28;20260;-70
2023/08/03 15:59:24;;;;;;;;;;;18.60;99.90;;;;;;8414070;28;19978;-71
2023/08/03 16:08:29;;;;;;;;;;;18.60;99.90;;;;;;8411812;28;19970;-71
2023/08/03 16:12:31;;;;;;;;;;;18.60;99.90;;;;;;8407208;28;19936;-73
2023/08/03 16:16:33;;;;;;;;;;;18.60;99.90;;;;;;8403901;28;19924;-71
2023/08/03 16:20:36;;;;;;;;;;;18.60;99.90;;;;;;8406449;28;20380;-71
2023/08/03 16:24:37;;;;;;;;;;;18.60;99.90;;;;;;8408099;28;19970;-71
2023/08/03 16:38:46;;;;;;;;;;;18.60;99.90;;;;;;8409981;28;20390;-71
2023/08/03 16:42:51;;;;;;;;;;;18.60;99.90;;;;;;8408056;28;19932;-71
2023/08/03 16:46:53;;;;;;;;;;;18.60;99.90;;;;;;8405807;28;19971;-72
2023/08/03 16:50:54;;;;;;;;;;;18.70;99.90;;;;;;8402764;28;19924;-71
2023/08/03 16:54:56;;;;;;;;;;;18.60;99.90;;;;;;8405709;28;19958;-71
2023/08/03 16:58:59;;;;;;;;;;;18.60;99.90;;;;;;8407415;28;19936;-71
2023/08/03 17:03:01;;;;;;;;;;;18.40;99.90;;;;;;8405753;28;19939;-71
2023/08/03 17:07:03;;;;;;;;;;;18.40;99.90;;;;;;8403439;28;20330;-71
2023/08/03 17:11:04;;;;;;;;;;;18.30;99.90;;;;;;8405596;28;19931;-71
2023/08/03 17:15:06;;;;;;;;;;;18.20;99.90;;;;;;8407205;28;19928;-71
2023/08/03 17:19:09;;;;;;;;;;;18.10;99.90;;;;;;8416975;28;20368;-71
2023/08/03 17:23:11;;;;;;;;;;;18.10;99.90;;;;;;8393945;28;19924;-72
2023/08/03 17:27:12;;;;;;;;;;;18.10;99.90;;;;;;8400932;28;19928;-71
2023/08/03 17:31:14;;;;;;;;;;;18.10;99.90;;;;;;8407091;28;19931;-71
2023/08/03 17:35:17;;;;;;;;;;;18.00;99.90;;;;;;8407019;28;20372;-71
2023/08/03 17:39:18;;;;;;;;;;;18.00;99.90;;;;;;8407647;28;19931;-71
2023/08/03 17:43:20;;;;;;;;;;;18.00;99.90;;;;;;8406046;28;20372;-71
2023/08/03 17:47:22;;;;;;;;;;;18.10;99.90;;;;;;8394859;28;19940;-71
2023/08/03 17:51:24;;;;;;;;;;;18.00;99.90;;;;;;8399514;28;19940;-71
2023/08/03 17:55:26;;;;;;;;;;;18.10;99.90;;;;;;8418131;28;20015;-71
2023/08/03 17:59:28;;;;;;;;;;;18.10;99.90;;;;;;8419248;28;19969;-71
2023/08/03 18:03:30;;;;;;;;;;;18.10;99.90;;;;;;8400905;28;19936;-71
2023/08/03 18:07:31;;;;;;;;;;;18.00;99.90;;;;;;8398508;28;19982;-71
2023/08/03 18:11:33;;;;;;;;;;;18.00;99.90;;;;;;8403586;28;19947;-71
2023/08/03 18:15:35;;;;;;;;;;;18.00;99.90;;;;;;8389709;28;19935;-71
2023/08/03 18:19:37;;;;;;;;;;;18.00;99.90;;;;;;8391753;28;20388;-71
2023/08/03 18:23:39;;;;;;;;;;;18.10;99.90;;;;;;8407377;28;19925;-71
2023/08/03 18:27:41;;;;;;;;;;;18.00;99.90;;;;;;8401255;28;19924;-71
2023/08/03 18:31:42;;;;;;;;;;;18.00;99.90;;;;;;8394957;28;20673;-71
2023/08/03 18:35:44;;;;;;;;;;;18.00;99.90;;;;;;8399698;28;19931;-71
2023/08/03 18:39:46;;;;;;;;;;;18.00;99.90;;;;;;8394305;28;19924;-71
2023/08/03 18:43:48;;;;;;;;;;;18.00;99.90;;;;;;8400556;28;19924;-71
2023/08/03 18:47:50;;;;;;;;;;;18.00;99.90;;;;;;8401626;28;19928;-71
2023/08/03 18:51:52;;;;;;;;;;;18.00;99.90;;;;;;8402029;28;19971;-71
2023/08/03 18:55:57;;;;;;;;;;;18.00;99.90;;;;;;8385841;28;19986;-71
2023/08/03 18:59:59;;;;;;;;;;;18.00;99.90;;;;;;8398179;28;20268;-71
2023/08/03 19:04:01;;;;;;;;;;;18.00;99.90;;;;;;8400158;28;19931;-71
2023/08/03 19:08:03;;;;;;;;;;;18.00;99.90;;;;;;8397989;28;20013;-71
2023/08/03 19:12:05;;;;;;;;;;;18.00;99.90;;;;;;8395364;28;19932;-71
2023/08/03 19:16:06;;;;;;;;;;;18.00;99.90;;;;;;8393449;28;19925;-71
2023/08/03 19:20:10;;;;;;;;;;;18.00;99.90;;;;;;8401145;28;19936;-71
2023/08/03 19:24:12;;;;;;;;;;;18.00;99.90;;;;;;8408357;28;19928;-71
2023/08/03 19:28:14;;;;;;;;;;;17.90;99.90;;;;;;8399437;28;19925;-71
2023/08/03 19:32:16;;;;;;;;;;;17.90;99.90;;;;;;8395935;28;19947;-71
2023/08/03 19:36:18;;;;;;;;;;;17.90;99.90;;;;;;8387261;28;19929;-71
2023/08/03 19:40:20;;;;;;;;;;;17.90;99.90;;;;;;8395755;28;19932;-72
2023/08/03 19:44:21;;;;;;;;;;;17.80;99.90;;;;;;8403308;28;19928;-71
2023/08/03 19:48:25;;;;;;;;;;;17.80;99.90;;;;;;8385389;28;19924;-71
2023/08/03 19:52:26;;;;;;;;;;;17.80;99.90;;;;;;8400041;28;19931;-71
2023/08/03 19:56:48;;;;;;;;;;;17.80;99.90;;;;;;8395895;28;19927;-71
2023/08/03 20:00:49;;;;;;;;;;;17.80;99.90;;;;;;8393476;28;19938;-71
2023/08/03 20:04:55;;;;;;;;;;;17.80;99.90;;;;;;8405295;28;19989;-71
2023/08/03 20:09:17;;;;;;;;;;;17.70;99.90;;;;;;8405391;28;19971;-71
2023/08/03 20:13:19;;;;;;;;;;;17.70;99.90;;;;;;8406497;28;19930;-71
2023/08/03 20:17:21;;;;;;;;;;;17.70;99.90;;;;;;8392091;28;19925;-71
2023/08/03 20:21:26;;;;;;;;;;;17.70;99.90;;;;;;8404229;28;19932;-71
2023/08/03 20:25:28;;;;;;;;;;;17.60;99.90;;;;;;8400899;28;19929;-71
2023/08/03 20:29:30;;;;;;;;;;;17.60;99.90;;;;;;8405629;28;19970;-70
2023/08/03 20:33:45;;;;;;;;;;;17.60;99.90;;;;;;8403983;28;20380;-71
2023/08/03 20:37:46;;;;;;;;;;;17.50;99.90;;;;;;8402558;28;19928;-71
2023/08/03 20:41:48;;;;;;;;;;;17.50;99.90;;;;;;8406288;28;20543;-71
2023/08/03 20:45:53;;;;;;;;;;;17.50;99.90;;;;;;8386800;28;20287;-71
2023/08/03 20:49:54;;;;;;;;;;;17.50;99.90;;;;;;8406465;28;19986;-71
2023/08/03 20:53:58;;;;;;;;;;;17.50;99.90;;;;;;8404504;28;19928;-71
2023/08/03 20:58:01;;;;;;;;;;;17.50;99.90;;;;;;8400346;28;19924;-71
2023/08/03 21:07:05;;;;;;;;;;;17.40;99.90;;;;;;8424055;28;19923;-71
2023/08/03 21:11:14;;;;;;;;;;;17.40;99.90;;;;;;8406350;28;19928;-71
2023/08/03 21:15:16;;;;;;;;;;;17.40;99.90;;;;;;8411886;28;20333;-71
2023/08/03 21:19:20;;;;;;;;;;;17.30;99.90;;;;;;8415822;28;19948;-71
2023/08/03 21:23:22;;;;;;;;;;;17.30;99.90;;;;;;8418781;28;19924;-71
2023/08/03 21:27:23;;;;;;;;;;;17.20;99.90;;;;;;8421940;28;19969;-71
2023/08/03 21:31:25;;;;;;;;;;;17.20;99.90;;;;;;8404567;28;19935;-71
2023/08/03 21:35:27;;;;;;;;;;;17.10;99.90;;;;;;8427596;28;20010;-71
2023/08/03 21:39:28;;;;;;;;;;;17.10;99.90;;;;;;8427552;28;19977;-71
2023/08/03 21:43:30;;;;;;;;;;;17.10;99.90;;;;;;8414597;28;20002;-71
2023/08/03 21:47:32;;;;;;;;;;;17.00;99.90;;;;;;8427396;28;19931;-71
2023/08/03 21:51:33;;;;;;;;;;;17.00;99.90;;;;;;8420822;28;20390;-71
2023/08/03 21:55:37;;;;;;;;;;;17.00;99.90;;;;;;8423083;28;19924;-71
2023/08/03 21:59:39;;;;;;;;;;;17.00;99.90;;;;;;8420056;28;19977;-71
2023/08/03 22:03:41;;;;;;;;;;;17.00;99.90;;;;;;8418801;28;20371;-71
2023/08/03 22:07:42;;;;;;;;;;;17.00;99.90;;;;;;8421183;28;19950;-71
2023/08/03 22:11:44;;;;;;;;;;;17.00;99.90;;;;;;8427595;28;19928;-72
2023/08/03 22:15:51;;;;;;;;;;;16.90;99.90;;;;;;8425999;28;20201;-71
2023/08/03 22:19:54;;;;;;;;;;;16.90;99.90;;;;;;8421843;28;20361;-71
2023/08/03 22:23:56;;;;;;;;;;;16.90;99.90;;;;;;8414606;28;20326;-71
2023/08/03 22:27:57;;;;;;;;;;;16.90;99.90;;;;;;8418270;28;19924;-71
2023/08/03 22:31:59;;;;;;;;;;;16.90;99.90;;;;;;8406862;28;20407;-70
2023/08/03 22:36:08;;;;;;;;;;;16.90;99.90;;;;;;8402178;28;19970;-70
2023/08/03 22:40:10;;;;;;;;;;;16.80;99.90;;;;;;8418374;28;19925;-71
2023/08/03 22:44:11;;;;;;;;;;;16.80;99.90;;;;;;8420735;28;19932;-71
2023/08/03 22:48:14;;;;;;;;;;;16.70;99.90;;;;;;8427131;28;20023;-71
2023/08/03 22:52:16;;;;;;;;;;;16.70;99.90;;;;;;8414790;28;19950;-71
2023/08/03 22:56:17;;;;;;;;;;;16.70;99.90;;;;;;8399254;28;19931;-71
2023/08/03 23:00:19;;;;;;;;;;;16.60;99.90;;;;;;8417719;28;19960;-71
2023/08/03 23:04:21;;;;;;;;;;;16.60;99.90;;;;;;8417553;28;19969;-70
2023/08/03 23:08:23;;;;;;;;;;;16.60;99.90;;;;;;8403953;28;19931;-71
2023/08/03 23:12:24;;;;;;;;;;;16.60;99.90;;;;;;8423288;28;19931;-71
2023/08/03 23:16:26;;;;;;;;;;;16.60;99.90;;;;;;8425997;28;19977;-71
2023/08/03 23:20:28;;;;;;;;;;;16.60;99.90;;;;;;8420419;28;19931;-71
2023/08/03 23:24:29;;;;;;;;;;;16.60;99.90;;;;;;8411919;28;19966;-71
2023/08/03 23:28:32;;;;;;;;;;;16.50;99.90;;;;;;8421719;28;19930;-71
2023/08/03 23:32:34;;;;;;;;;;;16.50;99.90;;;;;;8406450;28;19958;-71
2023/08/03 23:36:36;;;;;;;;;;;16.50;99.90;;;;;;8401539;28;20276;-71
2023/08/03 23:40:38;;;;;;;;;;;16.50;99.90;;;;;;8429285;28;19928;-71
2023/08/03 23:44:39;;;;;;;;;;;16.50;99.90;;;;;;8426316;28;19957;-71
2023/08/03 23:48:41;;;;;;;;;;;16.50;99.90;;;;;;8411437;28;19933;-71
2023/08/03 23:52:43;;;;;;;;;;;16.50;99.90;;;;;;8428171;28;20284;-71
2023/08/03 23:56:44;;;;;;;;;;;16.40;99.90;;;;;;8413967;28;19924;-70
